Terminal Aerodrome Forecast
Issued by NWS

Home | Current Version | Previous Version | Graphics & Text | Print | Product List | Glossary On
Versions: 1 2 3 4 5 6 7 8 9 10 11 12 13 14 15 16 17 18 19
963
FTUS43 KOAX 141458 AAA
TAFCDR
TAF AMD
KCDR 141458Z 1415/1512 25010KT P6SM BKN150
     FM142300 33014KT P6SM -SN BKN080
     FM150100 34014KT 3SM -SN OVC011
     FM150300 35013KT 1SM -SN OVC010
     FM150600 35010KT P6SM -SN BKN020
     FM151000 34009KT P6SM BKN040=

USA.gov is the U.S. government's official web portal to all federal, state and local government web resources and services.